Time,TemperatureF,DewpointF,PressureIn,WindDirection,WindDirectionDegrees,WindSpeedMPH,WindSpeedGustMPH,Humidity,HourlyPrecipIn,Conditions,Clouds,dailyrainin,SoftwareType,DateUTC
2013-11-03 00:04:00,51.8,42.3,29.88,WNW,293,1.0,3.0,70,0.00,,,0.00,Wunderground v.1.15,2013-11-03 07:04:00,
2013-11-03 00:09:00,52.0,42.9,29.88,WNW,293,1.0,3.0,71,0.00,,,0.00,Wunderground v.1.15,2013-11-03 07:09:00,
2013-11-03 00:14:00,52.1,43.0,29.88,WNW,292,1.0,3.0,71,0.00,,,0.00,Wunderground v.1.15,2013-11-03 07:14:00,
2013-11-03 00:19:00,51.9,40.9,29.88,WSW,257,1.0,3.0,66,0.00,,,0.00,Wunderground v.1.15,2013-11-03 07:19:00,
2013-11-03 00:24:00,52.0,38.1,29.87,SW,229,1.0,3.0,59,0.00,,,0.00,Wunderground v.1.15,2013-11-03 07:24:00,
2013-11-03 00:34:00,52.3,36.1,29.87,WSW,239,1.0,3.0,54,0.00,,,0.00,Wunderground v.1.15,2013-11-03 07:34:00,
2013-11-03 00:39:00,52.4,34.3,29.87,SSW,205,1.0,3.0,50,0.00,,,0.00,Wunderground v.1.15,2013-11-03 07:39:00,
2013-11-03 00:44:00,52.6,35.5,29.87,WSW,252,1.0,3.0,52,0.00,,,0.00,Wunderground v.1.15,2013-11-03 07:44:00,
2013-11-03 00:49:00,52.4,37.2,29.87,WSW,252,1.0,1.0,56,0.00,,,0.00,Wunderground v.1.15,2013-11-03 07:49:00,
2013-11-03 00:54:00,52.3,36.1,29.87,WSW,248,1.0,2.0,54,0.00,,,0.00,Wunderground v.1.15,2013-11-03 07:54:00,
2013-11-03 01:04:00,52.4,35.8,29.86,West,276,1.0,3.0,53,0.00,,,0.00,Wunderground v.1.15,2013-11-03 08:04:00,
2013-11-03 01:09:00,52.0,36.3,29.86,West,276,1.0,1.0,55,0.00,,,0.00,Wunderground v.1.15,2013-11-03 08:09:00,
2013-11-03 01:14:00,51.6,37.7,29.86,West,271,0.0,3.0,59,0.00,,,0.00,Wunderground v.1.15,2013-11-03 08:14:00,
2013-11-03 01:19:00,51.3,37.4,29.86,WSW,250,1.0,3.0,59,0.00,,,0.00,Wunderground v.1.15,2013-11-03 08:19:00,
2013-11-03 01:24:00,51.4,35.3,29.86,WSW,250,1.0,3.0,54,0.00,,,0.00,Wunderground v.1.15,2013-11-03 08:24:00,
2013-11-03 01:29:00,51.7,33.6,29.86,SSW,207,1.0,3.0,50,0.00,,,0.00,Wunderground v.1.15,2013-11-03 08:29:00,
2013-11-03 01:34:00,52.0,34.9,29.86,SSW,207,1.0,3.0,52,0.00,,,0.00,Wunderground v.1.15,2013-11-03 08:34:00,
2013-11-03 01:39:00,51.9,36.7,29.86,West,279,1.0,1.0,56,0.00,,,0.00,Wunderground v.1.15,2013-11-03 08:39:00,
2013-11-03 01:44:00,51.8,38.3,29.86,WNW,297,1.0,3.0,60,0.00,,,0.00,Wunderground v.1.15,2013-11-03 08:44:00,
2013-11-03 01:49:00,51.8,38.3,29.86,West,279,1.0,3.0,60,0.00,,,0.00,Wunderground v.1.15,2013-11-03 08:49:00,
2013-11-03 01:59:00,51.9,39.7,29.85,WNW,291,1.0,1.0,63,0.00,,,0.00,Wunderground v.1.15,2013-11-03 08:59:00,
2013-11-03 01:04:00,51.7,41.5,29.85,WNW,291,1.0,3.0,68,0.00,,,0.00,Wunderground v.1.15,2013-11-03 09:04:00,
2013-11-03 01:09:00,51.5,41.7,29.86,WNW,294,0.0,3.0,69,0.00,,,0.00,Wunderground v.1.15,2013-11-03 09:09:00,
2013-11-03 01:14:00,51.3,42.2,29.85,WNW,294,1.0,3.0,71,0.00,,,0.00,Wunderground v.1.15,2013-11-03 09:14:00,
2013-11-03 01:19:00,50.9,41.8,29.85,WSW,252,0.0,3.0,71,0.00,,,0.00,Wunderground v.1.15,2013-11-03 09:19:00,
2013-11-03 01:24:00,50.4,41.7,29.85,WSW,253,0.0,3.0,72,0.00,,,0.00,Wunderground v.1.15,2013-11-03 09:24:00,
2013-11-03 01:29:00,49.9,41.2,29.85,WSW,252,0.0,3.0,72,0.00,,,0.00,Wunderground v.1.15,2013-11-03 09:29:00,
2013-11-03 01:39:00,49.3,40.7,29.85,WNW,290,0.0,3.0,72,0.00,,,0.00,Wunderground v.1.15,2013-11-03 09:39:00,
2013-11-03 01:44:00,49.6,41.3,29.85,WNW,293,0.0,3.0,73,0.00,,,0.00,Wunderground v.1.15,2013-11-03 09:44:00,
2013-11-03 01:49:00,50.5,41.1,29.85,NW,308,2.0,3.0,70,0.00,,,0.00,Wunderground v.1.15,2013-11-03 09:49:00,
2013-11-03 01:54:00,50.9,40.7,29.85,West,276,3.0,3.0,68,0.00,,,0.00,Wunderground v.1.15,2013-11-03 09:54:00,
2013-11-03 01:59:00,51.3,40.7,29.85,West,280,2.0,3.0,67,0.00,,,0.00,Wunderground v.1.15,2013-11-03 09:59:00,
2013-11-03 02:04:00,51.6,41.0,29.85,WNW,297,2.0,3.0,67,0.00,,,0.00,Wunderground v.1.15,2013-11-03 10:04:00,
2013-11-03 02:14:00,51.6,41.0,29.86,NW,309,2.0,3.0,67,0.00,,,0.00,Wunderground v.1.15,2013-11-03 10:14:00,
2013-11-03 02:19:00,51.4,41.2,29.86,West,276,2.0,3.0,68,0.00,,,0.00,Wunderground v.1.15,2013-11-03 10:19:00,
2013-11-03 02:24:00,51.4,41.9,29.86,WNW,300,2.0,3.0,70,0.00,,,0.00,Wunderground v.1.15,2013-11-03 10:24:00,
2013-11-03 02:29:00,51.6,42.5,29.85,West,259,3.0,3.0,71,0.00,,,0.00,Wunderground v.1.15,2013-11-03 10:29:00,
2013-11-03 02:34:00,51.4,41.9,29.85,WNW,302,2.0,3.0,70,0.00,,,0.00,Wunderground v.1.15,2013-11-03 10:34:00,
2013-11-03 02:44:00,50.9,42.2,29.85,WNW,287,1.0,3.0,72,0.00,,,0.00,Wunderground v.1.15,2013-11-03 10:44:00,
2013-11-03 02:49:00,50.6,42.3,29.85,NW,309,1.0,3.0,73,0.00,,,0.00,Wunderground v.1.15,2013-11-03 10:49:00,
2013-11-03 02:54:00,50.6,42.3,29.85,WNW,290,2.0,3.0,73,0.00,,,0.00,Wunderground v.1.15,2013-11-03 10:54:00,
2013-11-03 02:59:00,50.8,42.5,29.85,WNW,298,2.0,2.0,73,0.00,,,0.00,Wunderground v.1.15,2013-11-03 10:59:00,
2013-11-03 03:04:00,50.8,42.5,29.85,NW,308,2.0,3.0,73,0.00,,,0.00,Wunderground v.1.15,2013-11-03 11:04:00,
2013-11-03 03:09:00,50.8,42.8,29.85,NW,305,1.0,3.0,74,0.00,,,0.00,Wunderground v.1.15,2013-11-03 11:09:00,
2013-11-03 03:19:00,51.1,42.7,29.86,WNW,301,2.0,3.0,73,0.00,,,0.00,Wunderground v.1.15,2013-11-03 11:19:00,
2013-11-03 03:24:00,51.2,41.4,29.86,NW,312,3.0,3.0,69,0.00,,,0.00,Wunderground v.1.15,2013-11-03 11:24:00,
2013-11-03 03:29:00,51.2,40.6,29.85,NW,326,3.0,3.0,67,0.00,,,0.00,Wunderground v.1.15,2013-11-03 11:29:00,
2013-11-03 03:34:00,51.1,39.7,29.85,WNW,294,2.0,3.0,65,0.00,,,0.00,Wunderground v.1.15,2013-11-03 11:34:00,
2013-11-03 03:39:00,50.9,39.9,29.85,WNW,295,2.0,3.0,66,0.00,,,0.00,Wunderground v.1.15,2013-11-03 11:39:00,
2013-11-03 03:49:00,50.7,39.7,29.85,WNW,300,1.0,1.0,66,0.00,,,0.00,Wunderground v.1.15,2013-11-03 11:49:00,
2013-11-03 03:54:00,50.6,39.7,29.85,WNW,291,1.0,3.0,66,0.00,,,0.00,Wunderground v.1.15,2013-11-03 11:54:00,
2013-11-03 03:59:00,50.5,39.2,29.85,WNW,297,1.0,3.0,65,0.00,,,0.00,Wunderground v.1.15,2013-11-03 11:59:00,
2013-11-03 04:04:00,50.5,40.3,29.85,WNW,293,1.0,3.0,68,0.00,,,0.00,Wunderground v.1.15,2013-11-03 12:04:00,
2013-11-03 04:09:00,50.6,40.8,29.85,WNW,303,2.0,2.0,69,0.00,,,0.00,Wunderground v.1.15,2013-11-03 12:09:00,
2013-11-03 04:14:00,50.9,41.8,29.85,NW,304,2.0,3.0,71,0.00,,,0.00,Wunderground v.1.15,2013-11-03 12:14:00,
2013-11-03 04:19:00,50.8,42.1,29.85,WNW,294,2.0,2.0,72,0.00,,,0.00,Wunderground v.1.15,2013-11-03 12:19:00,
2013-11-03 04:29:00,50.0,42.0,29.85,WNW,294,0.0,3.0,74,0.00,,,0.00,Wunderground v.1.15,2013-11-03 12:29:00,
2013-11-03 04:34:00,49.9,42.3,29.85,WNW,297,1.0,3.0,75,0.00,,,0.00,Wunderground v.1.15,2013-11-03 12:34:00,
2013-11-03 04:39:00,49.7,42.4,29.85,NW,314,1.0,1.0,76,0.00,,,0.00,Wunderground v.1.15,2013-11-03 12:39:00,
2013-11-03 04:44:00,49.6,42.7,29.85,WNW,297,1.0,3.0,77,0.00,,,0.00,Wunderground v.1.15,2013-11-03 12:44:00,
2013-11-03 04:49:00,49.8,43.2,29.85,WNW,290,1.0,3.0,78,0.00,,,0.00,Wunderground v.1.15,2013-11-03 12:49:00,
2013-11-03 04:54:00,50.1,43.5,29.85,WNW,290,2.0,3.0,78,0.00,,,0.00,Wunderground v.1.15,2013-11-03 12:54:00,
2013-11-03 04:59:00,50.1,43.2,29.85,WNW,290,2.0,3.0,77,0.00,,,0.00,Wunderground v.1.15,2013-11-03 12:59:00,
2013-11-03 05:04:00,50.1,43.2,29.85,WNW,292,2.0,3.0,77,0.00,,,0.00,Wunderground v.1.15,2013-11-03 13:04:00,
2013-11-03 05:09:00,50.0,43.4,29.85,WNW,290,2.0,5.0,78,0.00,,,0.00,Wunderground v.1.15,2013-11-03 13:09:00,
2013-11-03 05:14:00,50.0,43.1,29.85,West,269,2.0,5.0,77,0.00,,,0.00,Wunderground v.1.15,2013-11-03 13:14:00,
2013-11-03 05:24:00,49.6,43.4,29.85,WNW,297,3.0,3.0,79,0.00,,,0.00,Wunderground v.1.15,2013-11-03 13:24:00,
2013-11-03 05:29:00,49.5,43.3,29.85,WNW,293,3.0,3.0,79,0.00,,,0.00,Wunderground v.1.15,2013-11-03 13:29:00,
2013-11-03 05:34:00,49.5,43.3,29.85,WNW,290,3.0,3.0,79,0.00,,,0.00,Wunderground v.1.15,2013-11-03 13:34:00,
2013-11-03 05:39:00,49.6,43.0,29.85,WNW,303,3.0,4.0,78,0.00,,,0.00,Wunderground v.1.15,2013-11-03 13:39:00,
2013-11-03 05:44:00,49.4,42.8,29.85,WNW,285,3.0,4.0,78,0.00,,,0.00,Wunderground v.1.15,2013-11-03 13:44:00,
2013-11-03 05:49:00,49.1,42.2,29.85,West,281,3.0,3.0,77,0.00,,,0.00,Wunderground v.1.15,2013-11-03 13:49:00,
2013-11-03 05:59:00,48.4,38.7,29.84,NW,304,3.0,3.0,69,0.00,,,0.00,Wunderground v.1.15,2013-11-03 13:59:00,
2013-11-03 06:04:00,48.4,37.9,29.85,WNW,289,2.0,3.0,67,0.00,,,0.00,Wunderground v.1.15,2013-11-03 14:04:00,
2013-11-03 06:09:00,48.2,37.4,29.85,West,276,2.0,3.0,66,0.00,,,0.00,Wunderground v.1.15,2013-11-03 14:09:00,
2013-11-03 06:14:00,48.1,37.3,29.85,WNW,285,2.0,3.0,66,0.00,,,0.00,Wunderground v.1.15,2013-11-03 14:14:00,
2013-11-03 06:19:00,47.9,37.5,29.85,West,278,2.0,3.0,67,0.00,,,0.00,Wunderground v.1.15,2013-11-03 14:19:00,
2013-11-03 06:24:00,47.5,37.1,29.86,West,271,2.0,3.0,67,0.00,,,0.00,Wunderground v.1.15,2013-11-03 14:24:00,
2013-11-03 06:29:00,47.4,37.0,29.86,WNW,296,2.0,3.0,67,0.00,,,0.00,Wunderground v.1.15,2013-11-03 14:29:00,
2013-11-03 06:34:00,47.5,38.2,29.86,West,263,3.0,3.0,70,0.00,,,0.00,Wunderground v.1.15,2013-11-03 14:34:00,
2013-11-03 06:39:00,47.5,39.3,29.86,NW,321,3.0,3.0,73,0.00,,,0.00,Wunderground v.1.15,2013-11-03 14:39:00,
2013-11-03 06:44:00,47.6,40.1,29.86,West,281,3.0,4.0,75,0.00,,,0.00,Wunderground v.1.15,2013-11-03 14:44:00,
2013-11-03 06:49:00,47.6,40.4,29.87,West,278,4.0,4.0,76,0.00,,,0.00,Wunderground v.1.15,2013-11-03 14:49:00,
2013-11-03 06:59:00,47.9,43.0,29.87,NW,304,3.0,3.0,83,0.00,,,0.00,Wunderground v.1.15,2013-11-03 14:59:00,
2013-11-03 07:09:00,48.4,44.7,29.88,NW,316,3.0,3.0,87,0.00,,,0.00,Wunderground v.1.15,2013-11-03 15:09:00,
2013-11-03 07:14:00,48.4,44.7,29.87,NW,314,3.0,3.0,87,0.00,,,0.00,Wunderground v.1.15,2013-11-03 15:14:00,
2013-11-03 07:19:00,48.6,45.2,29.88,West,280,3.0,3.0,88,0.00,,,0.00,Wunderground v.1.15,2013-11-03 15:19:00,
2013-11-03 07:29:00,49.3,45.9,29.88,WNW,288,1.0,1.0,88,0.00,,,0.00,Wunderground v.1.15,2013-11-03 15:29:00,
2013-11-03 07:34:00,49.6,46.2,29.88,WSW,245,1.0,1.0,88,0.00,,,0.00,Wunderground v.1.15,2013-11-03 15:34:00,
2013-11-03 07:39:00,49.7,45.7,29.88,West,276,1.0,4.0,86,0.00,,,0.00,Wunderground v.1.15,2013-11-03 15:39:00,
2013-11-03 07:44:00,49.2,45.5,29.89,WNW,302,2.0,4.0,87,0.00,,,0.00,Wunderground v.1.15,2013-11-03 15:44:00,
2013-11-03 07:49:00,49.1,45.4,29.88,NW,312,2.0,2.0,87,0.00,,,0.00,Wunderground v.1.15,2013-11-03 15:49:00,
2013-11-03 07:54:00,49.2,45.8,29.89,NW,317,3.0,3.0,88,0.00,,,0.00,Wunderground v.1.15,2013-11-03 15:54:00,
2013-11-03 07:59:00,49.5,46.1,29.88,WNW,290,3.0,3.0,88,0.00,,,0.00,Wunderground v.1.15,2013-11-03 15:59:00,
2013-11-03 08:04:00,49.3,45.6,29.88,WNW,297,3.0,4.0,87,0.00,,,0.00,Wunderground v.1.15,2013-11-03 16:04:00,
2013-11-03 08:14:00,48.5,45.7,29.88,WNW,295,3.0,4.0,90,0.00,,,0.00,Wunderground v.1.15,2013-11-03 16:14:00,
2013-11-03 08:19:00,48.4,45.9,29.88,WNW,303,4.0,6.0,91,0.00,,,0.00,Wunderground v.1.15,2013-11-03 16:19:00,
2013-11-03 08:24:00,48.0,45.5,29.88,WNW,300,5.0,6.0,91,0.00,,,0.00,Wunderground v.1.15,2013-11-03 16:24:00,
2013-11-03 08:34:00,48.7,46.5,29.88,WNW,300,4.0,5.0,92,0.00,,,0.00,Wunderground v.1.15,2013-11-03 16:34:00,
2013-11-03 08:39:00,48.6,46.4,29.88,NW,304,4.0,5.0,92,0.00,,,0.00,Wunderground v.1.15,2013-11-03 16:39:00,
2013-11-03 08:44:00,48.8,46.9,29.88,WNW,302,5.0,5.0,93,0.00,,,0.00,Wunderground v.1.15,2013-11-03 16:44:00,
2013-11-03 08:49:00,49.0,46.8,29.89,NW,304,5.0,7.0,92,0.00,,,0.00,Wunderground v.1.15,2013-11-03 16:49:00,
2013-11-03 08:54:00,48.9,46.4,29.89,NW,323,5.0,7.0,91,0.00,,,0.00,Wunderground v.1.15,2013-11-03 16:54:00,
2013-11-03 08:59:00,49.1,47.2,29.89,NNW,331,5.0,5.0,93,0.00,,,0.00,Wunderground v.1.15,2013-11-03 16:59:00,
2013-11-03 09:04:00,49.2,46.7,29.89,WNW,303,4.0,5.0,91,0.00,,,0.00,Wunderground v.1.15,2013-11-03 17:04:00,
2013-11-03 09:09:00,49.3,46.8,29.89,West,269,3.0,6.0,91,0.00,,,0.00,Wunderground v.1.15,2013-11-03 17:09:00,
2013-11-03 09:19:00,49.8,47.3,29.88,NW,304,4.0,5.0,91,0.00,,,0.00,Wunderground v.1.15,2013-11-03 17:19:00,
2013-11-03 09:24:00,50.3,47.5,29.88,WNW,283,4.0,5.0,90,0.00,,,0.00,Wunderground v.1.15,2013-11-03 17:24:00,
2013-11-03 09:29:00,50.8,47.4,29.88,WNW,284,4.0,5.0,88,0.00,,,0.00,Wunderground v.1.15,2013-11-03 17:29:00,
2013-11-03 09:34:00,51.4,47.7,29.88,SW,217,4.0,5.0,87,0.00,,,0.00,Wunderground v.1.15,2013-11-03 17:34:00,
2013-11-03 09:44:00,52.2,47.5,29.88,SSE,154,3.0,6.0,84,0.00,,,0.00,Wunderground v.1.15,2013-11-03 17:44:00,
2013-11-03 09:49:00,52.4,47.4,29.88,WNW,290,4.0,5.0,83,0.00,,,0.00,Wunderground v.1.15,2013-11-03 17:49:00,
2013-11-03 09:54:00,52.4,47.4,29.88,WNW,292,5.0,5.0,83,0.00,,,0.00,Wunderground v.1.15,2013-11-03 17:54:00,
2013-11-03 09:59:00,52.9,47.6,29.88,West,281,5.0,7.0,82,0.00,,,0.00,Wunderground v.1.15,2013-11-03 17:59:00,
2013-11-03 10:04:00,53.4,47.4,29.88,WNW,293,5.0,7.0,80,0.00,,,0.00,Wunderground v.1.15,2013-11-03 18:04:00,
2013-11-03 10:09:00,54.1,47.0,29.88,NW,316,5.0,5.0,77,0.00,,,0.00,Wunderground v.1.15,2013-11-03 18:09:00,
2013-11-03 10:14:00,54.6,46.8,29.88,West,277,5.0,5.0,75,0.00,,,0.00,Wunderground v.1.15,2013-11-03 18:14:00,
2013-11-03 10:19:00,55.0,47.2,29.88,NW,308,5.0,5.0,75,0.00,,,0.00,Wunderground v.1.15,2013-11-03 18:19:00,
2013-11-03 10:24:00,54.9,47.1,29.88,WNW,283,5.0,6.0,75,0.00,,,0.00,Wunderground v.1.15,2013-11-03 18:24:00,
2013-11-03 10:29:00,55.6,47.8,29.88,NW,305,5.0,5.0,75,0.00,,,0.00,Wunderground v.1.15,2013-11-03 18:29:00,
2013-11-03 10:34:00,55.9,47.4,29.88,NW,308,5.0,6.0,73,0.00,,,0.00,Wunderground v.1.15,2013-11-03 18:34:00,
2013-11-03 10:44:00,56.5,47.2,29.88,West,281,6.0,6.0,71,0.00,,,0.00,Wunderground v.1.15,2013-11-03 18:44:00,
2013-11-03 10:49:00,56.8,46.7,29.88,WNW,292,5.0,6.0,69,0.00,,,0.00,Wunderground v.1.15,2013-11-03 18:49:00,
2013-11-03 10:54:00,56.5,46.4,29.88,West,262,6.0,6.0,69,0.00,,,0.00,Wunderground v.1.15,2013-11-03 18:54:00,
2013-11-03 11:04:00,58.1,49.5,29.88,SSE,167,3.0,5.0,73,0.00,,,0.00,Wunderground v.1.15,2013-11-03 19:04:00,
2013-11-03 11:09:00,58.9,49.5,29.88,WNW,301,3.0,5.0,71,0.00,,,0.00,Wunderground v.1.15,2013-11-03 19:09:00,
2013-11-03 11:14:00,58.9,49.5,29.88,South,186,3.0,5.0,71,0.00,,,0.00,Wunderground v.1.15,2013-11-03 19:14:00,
2013-11-03 11:19:00,59.0,48.4,29.88,WNW,300,3.0,6.0,68,0.00,,,0.00,Wunderground v.1.15,2013-11-03 19:19:00,
2013-11-03 11:24:00,59.7,49.5,29.87,SSE,155,3.0,6.0,69,0.00,,,0.00,Wunderground v.1.15,2013-11-03 19:24:00,
2013-11-03 11:29:00,59.8,49.2,29.87,WNW,301,3.0,3.0,68,0.00,,,0.00,Wunderground v.1.15,2013-11-03 19:29:00,
2013-11-03 11:34:00,59.7,47.5,29.87,WNW,291,3.0,7.0,64,0.00,,,0.00,Wunderground v.1.15,2013-11-03 19:34:00,
2013-11-03 11:39:00,59.3,46.7,29.88,NW,307,4.0,4.0,63,0.00,,,0.00,Wunderground v.1.15,2013-11-03 19:39:00,
2013-11-03 11:49:00,60.4,47.7,29.87,WNW,297,3.0,5.0,63,0.00,,,0.00,Wunderground v.1.15,2013-11-03 19:49:00,
2013-11-03 11:54:00,59.8,45.4,29.87,NNW,329,4.0,5.0,59,0.00,,,0.00,Wunderground v.1.15,2013-11-03 19:54:00,
2013-11-03 11:59:00,60.3,46.8,29.86,WNW,285,4.0,4.0,61,0.00,,,0.00,Wunderground v.1.15,2013-11-03 19:59:00,
2013-11-03 12:09:00,60.7,45.8,29.86,WNW,293,4.0,4.0,58,0.00,,,0.00,Wunderground v.1.15,2013-11-03 20:09:00,
2013-11-03 12:14:00,61.4,47.8,29.86,WNW,302,4.0,4.0,61,0.00,,,0.00,Wunderground v.1.15,2013-11-03 20:14:00,
2013-11-03 12:19:00,61.3,46.8,29.86,NW,311,3.0,4.0,59,0.00,,,0.00,Wunderground v.1.15,2013-11-03 20:19:00,
2013-11-03 12:24:00,61.4,46.5,29.85,SW,224,4.0,4.0,58,0.00,,,0.00,Wunderground v.1.15,2013-11-03 20:24:00,
2013-11-03 12:29:00,61.4,46.9,29.85,South,169,4.0,4.0,59,0.00,,,0.00,Wunderground v.1.15,2013-11-03 20:29:00,
2013-11-03 12:39:00,62.0,46.1,29.85,NW,322,3.0,5.0,56,0.00,,,0.00,Wunderground v.1.15,2013-11-03 20:39:00,
2013-11-03 12:49:00,62.2,44.9,29.84,SSE,162,3.0,3.0,53,0.00,,,0.00,Wunderground v.1.15,2013-11-03 20:49:00,
2013-11-03 12:54:00,62.5,44.6,29.84,WNW,300,3.0,4.0,52,0.00,,,0.00,Wunderground v.1.15,2013-11-03 20:54:00,
2013-11-03 12:59:00,62.9,43.4,29.84,South,176,3.0,3.0,49,0.00,,,0.00,Wunderground v.1.15,2013-11-03 20:59:00,
2013-11-03 13:04:00,63.0,43.0,29.84,WNW,303,4.0,7.0,48,0.00,,,0.00,Wunderground v.1.15,2013-11-03 21:04:00,
2013-11-03 13:09:00,63.0,43.0,29.84,WSW,241,4.0,4.0,48,0.00,,,0.00,Wunderground v.1.15,2013-11-03 21:09:00,
2013-11-03 13:19:00,63.2,43.2,29.84,South,179,4.0,4.0,48,0.00,,,0.00,Wunderground v.1.15,2013-11-03 21:19:00,
2013-11-03 13:24:00,63.7,42.5,29.84,SSE,156,3.0,4.0,46,0.00,,,0.00,Wunderground v.1.15,2013-11-03 21:24:00,
2013-11-03 13:29:00,64.0,42.8,29.84,South,176,3.0,3.0,46,0.00,,,0.00,Wunderground v.1.15,2013-11-03 21:29:00,
2013-11-03 13:34:00,64.0,43.9,29.84,West,266,2.0,3.0,48,0.00,,,0.00,Wunderground v.1.15,2013-11-03 21:34:00,
2013-11-03 13:44:00,64.9,46.3,29.83,West,276,2.0,3.0,51,0.00,,,0.00,Wunderground v.1.15,2013-11-03 21:44:00,
2013-11-03 13:54:00,64.6,43.9,29.84,SSW,205,3.0,3.0,47,0.00,,,0.00,Wunderground v.1.15,2013-11-03 21:54:00,
2013-11-03 13:59:00,64.4,44.8,29.83,WNW,302,3.0,3.0,49,0.00,,,0.00,Wunderground v.1.15,2013-11-03 21:59:00,
2013-11-03 14:04:00,64.4,45.3,29.83,WNW,286,2.0,4.0,50,0.00,,,0.00,Wunderground v.1.15,2013-11-03 22:04:00,
2013-11-03 14:09:00,64.2,44.1,29.83,West,273,2.0,5.0,48,0.00,,,0.00,Wunderground v.1.15,2013-11-03 22:09:00,
2013-11-03 14:19:00,64.6,46.1,29.83,NW,312,2.0,2.0,51,0.00,,,0.00,Wunderground v.1.15,2013-11-03 22:19:00,
2013-11-03 14:29:00,64.8,45.7,29.83,South,181,2.0,2.0,50,0.00,,,0.00,Wunderground v.1.15,2013-11-03 22:29:00,
2013-11-03 14:34:00,65.0,46.4,29.83,SSE,165,2.0,5.0,51,0.00,,,0.00,Wunderground v.1.15,2013-11-03 22:34:00,
2013-11-03 14:39:00,65.1,46.0,29.82,WSW,241,2.0,2.0,50,0.00,,,0.00,Wunderground v.1.15,2013-11-03 22:39:00,
2013-11-03 14:44:00,65.2,46.1,29.82,WNW,301,2.0,2.0,50,0.00,,,0.00,Wunderground v.1.15,2013-11-03 22:44:00,
2013-11-03 14:49:00,64.8,45.7,29.82,WSW,238,3.0,3.0,50,0.00,,,0.00,Wunderground v.1.15,2013-11-03 22:49:00,
2013-11-03 14:59:00,65.0,46.9,29.82,NW,322,2.0,4.0,52,0.00,,,0.00,Wunderground v.1.15,2013-11-03 22:59:00,
2013-11-03 15:04:00,64.8,45.7,29.82,NW,323,3.0,5.0,50,0.00,,,0.00,Wunderground v.1.15,2013-11-03 23:04:00,
2013-11-03 15:09:00,64.7,46.1,29.82,NW,322,3.0,3.0,51,0.00,,,0.00,Wunderground v.1.15,2013-11-03 23:09:00,
2013-11-03 15:19:00,64.7,45.6,29.82,WNW,293,3.0,4.0,50,0.00,,,0.00,Wunderground v.1.15,2013-11-03 23:19:00,
2013-11-03 15:24:00,64.3,46.3,29.81,West,264,3.0,4.0,52,0.00,,,0.00,Wunderground v.1.15,2013-11-03 23:24:00,
2013-11-03 15:34:00,63.9,46.4,29.81,South,173,2.0,2.0,53,0.00,,,0.00,Wunderground v.1.15,2013-11-03 23:34:00,
2013-11-03 15:39:00,63.5,46.1,29.81,SSE,153,2.0,2.0,53,0.00,,,0.00,Wunderground v.1.15,2013-11-03 23:39:00,
2013-11-03 15:44:00,63.3,45.9,29.81,NW,322,2.0,2.0,53,0.00,,,0.00,Wunderground v.1.15,2013-11-03 23:44:00,
2013-11-03 15:49:00,63.1,46.2,29.81,West,281,2.0,2.0,54,0.00,,,0.00,Wunderground v.1.15,2013-11-03 23:49:00,
2013-11-03 15:54:00,63.0,46.6,29.81,South,184,2.0,2.0,55,0.00,,,0.00,Wunderground v.1.15,2013-11-03 23:54:00,
2013-11-03 16:04:00,62.8,46.4,29.81,South,181,2.0,2.0,55,0.00,,,0.00,Wunderground v.1.15,2013-11-04 00:04:00,
2013-11-03 16:14:00,62.8,46.4,29.81,NW,314,2.0,2.0,55,0.00,,,0.00,Wunderground v.1.15,2013-11-04 00:14:00,
2013-11-03 16:19:00,62.9,47.0,29.81,SSE,163,1.0,1.0,56,0.00,,,0.00,Wunderground v.1.15,2013-11-04 00:19:00,
2013-11-03 16:24:00,62.6,47.6,29.81,SSE,148,1.0,1.0,58,0.00,,,0.00,Wunderground v.1.15,2013-11-04 00:24:00,
2013-11-03 16:29:00,62.0,47.5,29.81,South,177,1.0,1.0,59,0.00,,,0.00,Wunderground v.1.15,2013-11-04 00:29:00,
2013-11-03 16:34:00,61.4,47.4,29.81,WSW,257,1.0,1.0,60,0.00,,,0.00,Wunderground v.1.15,2013-11-04 00:34:00,
2013-11-03 16:44:00,60.3,46.8,29.81,West,273,0.0,1.0,61,0.00,,,0.00,Wunderground v.1.15,2013-11-04 00:44:00,
2013-11-03 16:49:00,59.6,46.6,29.81,South,188,0.0,0.0,62,0.00,,,0.00,Wunderground v.1.15,2013-11-04 00:49:00,
2013-11-03 16:54:00,59.1,46.9,29.81,SW,226,1.0,1.0,64,0.00,,,0.00,Wunderground v.1.15,2013-11-04 00:54:00,
2013-11-03 16:59:00,58.5,46.8,29.81,SW,231,1.0,1.0,65,0.00,,,0.00,Wunderground v.1.15,2013-11-04 00:59:00,
2013-11-03 17:09:00,57.8,47.3,29.82,WNW,294,1.0,1.0,68,0.00,,,0.00,Wunderground v.1.15,2013-11-04 01:09:00,
2013-11-03 17:19:00,57.6,47.9,29.82,NW,319,2.0,3.0,70,0.00,,,0.00,Wunderground v.1.15,2013-11-04 01:19:00,
2013-11-03 17:24:00,57.6,48.3,29.82,WNW,292,3.0,3.0,71,0.00,,,0.00,Wunderground v.1.15,2013-11-04 01:24:00,
2013-11-03 17:29:00,57.3,48.0,29.82,WNW,298,2.0,2.0,71,0.00,,,0.00,Wunderground v.1.15,2013-11-04 01:29:00,
2013-11-03 17:34:00,56.9,48.0,29.82,WNW,295,2.0,3.0,72,0.00,,,0.00,Wunderground v.1.15,2013-11-04 01:34:00,
2013-11-03 17:39:00,56.6,48.0,29.82,West,274,2.0,2.0,73,0.00,,,0.00,Wunderground v.1.15,2013-11-04 01:39:00,
2013-11-03 17:44:00,56.3,48.1,29.82,West,267,1.0,2.0,74,0.00,,,0.00,Wunderground v.1.15,2013-11-04 01:44:00,
2013-11-03 17:49:00,55.7,47.5,29.82,West,267,1.0,1.0,74,0.00,,,0.00,Wunderground v.1.15,2013-11-04 01:49:00,
2013-11-03 17:54:00,55.2,47.4,29.82,West,276,0.0,1.0,75,0.00,,,0.00,Wunderground v.1.15,2013-11-04 01:54:00,
2013-11-03 17:59:00,54.6,47.2,29.82,WSW,257,0.0,0.0,76,0.00,,,0.00,Wunderground v.1.15,2013-11-04 01:59:00,
2013-11-03 18:04:00,54.0,47.0,29.82,WSW,248,0.0,0.0,77,0.00,,,0.00,Wunderground v.1.15,2013-11-04 02:04:00,
2013-11-03 18:14:00,53.2,46.9,29.82,South,176,0.0,0.0,79,0.00,,,0.00,Wunderground v.1.15,2013-11-04 02:14:00,
2013-11-03 18:19:00,52.9,47.2,29.83,WNW,301,0.0,1.0,81,0.00,,,0.00,Wunderground v.1.15,2013-11-04 02:19:00,
2013-11-03 18:24:00,52.8,47.5,29.83,WNW,297,0.0,1.0,82,0.00,,,0.00,Wunderground v.1.15,2013-11-04 02:24:00,
2013-11-03 18:29:00,52.6,47.3,29.83,WNW,294,0.0,2.0,82,0.00,,,0.00,Wunderground v.1.15,2013-11-04 02:29:00,
2013-11-03 18:34:00,52.5,47.5,29.83,West,281,1.0,2.0,83,0.00,,,0.00,Wunderground v.1.15,2013-11-04 02:34:00,
2013-11-03 18:39:00,52.4,47.4,29.84,West,280,1.0,1.0,83,0.00,,,0.00,Wunderground v.1.15,2013-11-04 02:39:00,
2013-11-03 18:44:00,52.0,47.0,29.84,West,280,0.0,1.0,83,0.00,,,0.00,Wunderground v.1.15,2013-11-04 02:44:00,
2013-11-03 18:49:00,51.6,46.6,29.84,West,280,0.0,0.0,83,0.00,,,0.00,Wunderground v.1.15,2013-11-04 02:49:00,
2013-11-03 18:59:00,50.9,46.6,29.84,West,270,0.0,0.0,85,0.00,,,0.00,Wunderground v.1.15,2013-11-04 02:59:00,
2013-11-03 19:04:00,50.7,46.7,29.84,West,263,0.0,0.0,86,0.00,,,0.00,Wunderground v.1.15,2013-11-04 03:04:00,
2013-11-03 19:09:00,50.5,46.8,29.84,WSW,239,1.0,1.0,87,0.00,,,0.00,Wunderground v.1.15,2013-11-04 03:09:00,
2013-11-03 19:19:00,50.2,47.1,29.85,SW,236,0.0,0.0,89,0.00,,,0.00,Wunderground v.1.15,2013-11-04 03:19:00,
2013-11-03 19:24:00,50.0,46.9,29.84,SW,216,0.0,0.0,89,0.00,,,0.00,Wunderground v.1.15,2013-11-04 03:24:00,
2013-11-03 19:29:00,49.9,47.1,29.85,SSW,207,0.0,1.0,90,0.00,,,0.00,Wunderground v.1.15,2013-11-04 03:29:00,
2013-11-03 19:34:00,49.9,47.1,29.84,SW,228,0.0,1.0,90,0.00,,,0.00,Wunderground v.1.15,2013-11-04 03:34:00,
2013-11-03 19:39:00,49.9,47.4,29.84,SW,236,1.0,1.0,91,0.00,,,0.00,Wunderground v.1.15,2013-11-04 03:39:00,
2013-11-03 19:44:00,49.7,47.2,29.84,SW,226,1.0,1.0,91,0.00,,,0.00,Wunderground v.1.15,2013-11-04 03:44:00,
2013-11-03 19:49:00,49.5,47.0,29.84,SW,236,0.0,0.0,91,0.00,,,0.00,Wunderground v.1.15,2013-11-04 03:49:00,
2013-11-03 19:59:00,49.2,46.7,29.84,WSW,243,0.0,1.0,91,0.00,,,0.00,Wunderground v.1.15,2013-11-04 03:59:00,
2013-11-03 20:04:00,49.0,46.8,29.84,SSW,210,0.0,1.0,92,0.00,,,0.00,Wunderground v.1.15,2013-11-04 04:04:00,
2013-11-03 20:09:00,48.9,46.7,29.85,SSW,205,0.0,0.0,92,0.00,,,0.00,Wunderground v.1.15,2013-11-04 04:09:00,
2013-11-03 20:14:00,48.7,46.5,29.84,South,171,0.0,1.0,92,0.00,,,0.00,Wunderground v.1.15,2013-11-04 04:14:00,
2013-11-03 20:19:00,48.6,46.7,29.85,South,182,0.0,1.0,93,0.00,,,0.00,Wunderground v.1.15,2013-11-04 04:19:00,
2013-11-03 20:24:00,48.9,47.0,29.85,SSW,194,1.0,1.0,93,0.00,,,0.00,Wunderground v.1.15,2013-11-04 04:24:00,
2013-11-03 20:29:00,49.0,47.1,29.85,SW,232,1.0,1.0,93,0.00,,,0.00,Wunderground v.1.15,2013-11-04 04:29:00,
2013-11-03 20:39:00,49.6,47.9,29.85,WNW,297,1.0,2.0,94,0.00,,,0.00,Wunderground v.1.15,2013-11-04 04:39:00,
2013-11-03 20:44:00,49.8,48.1,29.85,WNW,290,1.0,2.0,94,0.00,,,0.00,Wunderground v.1.15,2013-11-04 04:44:00,
2013-11-03 20:49:00,49.9,48.2,29.85,SW,233,1.0,1.0,94,0.00,,,0.00,Wunderground v.1.15,2013-11-04 04:49:00,
2013-11-03 20:54:00,50.1,48.4,29.85,WSW,258,1.0,2.0,94,0.00,,,0.00,Wunderground v.1.15,2013-11-04 04:54:00,
2013-11-03 21:04:00,50.3,48.6,29.85,SSW,197,1.0,1.0,94,0.00,,,0.00,Wunderground v.1.15,2013-11-04 05:04:00,
2013-11-03 21:09:00,50.4,48.7,29.85,West,263,1.0,1.0,94,0.00,,,0.00,Wunderground v.1.15,2013-11-04 05:09:00,
2013-11-03 21:14:00,50.4,49.0,29.85,West,263,0.0,1.0,95,0.00,,,0.00,Wunderground v.1.15,2013-11-04 05:14:00,
2013-11-03 21:19:00,50.4,49.0,29.84,West,263,0.0,0.0,95,0.00,,,0.00,Wunderground v.1.15,2013-11-04 05:19:00,
2013-11-03 21:24:00,50.5,49.1,29.84,West,263,0.0,0.0,95,0.00,,,0.00,Wunderground v.1.15,2013-11-04 05:24:00,
2013-11-03 21:29:00,50.5,49.1,29.84,WNW,293,0.0,1.0,95,0.00,,,0.00,Wunderground v.1.15,2013-11-04 05:29:00,
2013-11-03 21:34:00,50.5,49.1,29.84,WNW,294,0.0,1.0,95,0.00,,,0.00,Wunderground v.1.15,2013-11-04 05:34:00,
2013-11-03 21:39:00,50.6,49.2,29.84,WNW,294,1.0,1.0,95,0.00,,,0.00,Wunderground v.1.15,2013-11-04 05:39:00,
2013-11-03 21:49:00,50.7,49.3,29.84,WNW,294,0.0,0.0,95,0.00,,,0.00,Wunderground v.1.15,2013-11-04 05:49:00,
2013-11-03 21:54:00,50.7,49.3,29.84,WNW,290,0.0,0.0,95,0.00,,,0.00,Wunderground v.1.15,2013-11-04 05:54:00,
2013-11-03 21:59:00,50.8,49.4,29.84,WNW,294,0.0,0.0,95,0.00,,,0.00,Wunderground v.1.15,2013-11-04 05:59:00,
2013-11-03 22:09:00,50.7,49.3,29.84,WSW,243,0.0,1.0,95,0.00,,,0.00,Wunderground v.1.15,2013-11-04 06:09:00,
2013-11-03 22:14:00,50.7,49.3,29.84,WSW,243,0.0,1.0,95,0.00,,,0.00,Wunderground v.1.15,2013-11-04 06:14:00,
2013-11-03 22:19:00,50.7,49.3,29.83,SW,235,0.0,0.0,95,0.00,,,0.00,Wunderground v.1.15,2013-11-04 06:19:00,
2013-11-03 22:24:00,50.7,49.3,29.83,SW,233,0.0,0.0,95,0.00,,,0.00,Wunderground v.1.15,2013-11-04 06:24:00,
2013-11-03 22:29:00,50.7,49.3,29.83,SW,232,0.0,0.0,95,0.00,,,0.00,Wunderground v.1.15,2013-11-04 06:29:00,
2013-11-03 22:34:00,50.7,49.3,29.82,SW,232,0.0,0.0,95,0.00,,,0.00,Wunderground v.1.15,2013-11-04 06:34:00,
2013-11-03 22:39:00,50.7,49.3,29.82,SW,231,0.0,0.0,95,0.00,,,0.00,Wunderground v.1.15,2013-11-04 06:39:00,
2013-11-03 22:44:00,50.7,49.3,29.82,SW,228,0.0,0.0,95,0.00,,,0.00,Wunderground v.1.15,2013-11-04 06:44:00,
2013-11-03 22:54:00,50.6,49.2,29.82,WNW,301,0.0,1.0,95,0.00,,,0.00,Wunderground v.1.15,2013-11-04 06:54:00,
2013-11-03 22:59:00,50.6,49.2,29.82,WNW,303,1.0,1.0,95,0.00,,,0.00,Wunderground v.1.15,2013-11-04 06:59:00,
2013-11-03 23:04:00,50.7,49.3,29.82,NW,304,1.0,2.0,95,0.00,,,0.00,Wunderground v.1.15,2013-11-04 07:04:00,
2013-11-03 23:09:00,50.7,49.3,29.82,NW,308,1.0,2.0,95,0.00,,,0.00,Wunderground v.1.15,2013-11-04 07:09:00,
2013-11-03 23:14:00,50.7,49.3,29.82,NW,311,2.0,2.0,95,0.00,,,0.00,Wunderground v.1.15,2013-11-04 07:14:00,
2013-11-03 23:24:00,50.6,49.2,29.82,WNW,301,2.0,2.0,95,0.00,,,0.00,Wunderground v.1.15,2013-11-04 07:24:00,
2013-11-03 23:29:00,50.6,49.2,29.83,WNW,291,2.0,2.0,95,0.00,,,0.00,Wunderground v.1.15,2013-11-04 07:29:00,
2013-11-03 23:34:00,50.6,49.2,29.83,WNW,291,2.0,3.0,95,0.00,,,0.00,Wunderground v.1.15,2013-11-04 07:34:00,
2013-11-03 23:39:00,50.6,49.2,29.82,WNW,285,2.0,2.0,95,0.00,,,0.00,Wunderground v.1.15,2013-11-04 07:39:00,
2013-11-03 23:44:00,50.6,49.2,29.82,WNW,303,2.0,2.0,95,0.00,,,0.00,Wunderground v.1.15,2013-11-04 07:44:00,
2013-11-03 23:49:00,50.6,49.2,29.82,WNW,296,2.0,2.0,95,0.00,,,0.00,Wunderground v.1.15,2013-11-04 07:49:00,
2013-11-03 23:59:00,50.7,49.3,29.82,West,271,1.0,1.0,95,0.00,,,0.00,Wunderground v.1.15,2013-11-04 07:59:00,